Time;durP1;ratioP1;P1;durP2;ratioP2;P2;SDS_P1;SDS_P2;PMS_P1;PMS_P2;Temp;Humidity;BMP_temperature;BMP_pressure;BME280_temperature;BME280_humidity;BME280_pressure;Samples;Min_cycle;Max_cycle;Signal;HPM_P1;HPM_P2
2022/09/25 00:02:22;;;;;;;24.17;12.02;;;;;;;;;;5094462;28;20051;-46
2022/09/25 00:04:51;;;;;;;20.52;11.57;;;;;;;;;;5095698;28;20052;-47
2022/09/25 00:07:20;;;;;;;22.15;12.63;;;;;;;;;;5096007;28;20130;-47
2022/09/25 00:09:50;;;;;;;20.92;11.73;;;;;;;;;;5096325;28;20063;-46
2022/09/25 00:12:18;;;;;;;18.23;10.75;;;;;;;;;;5095824;28;20489;-47
2022/09/25 00:14:58;;;;;;;20.50;12.35;;;;;;;;;;5095492;28;20048;-47
2022/09/25 00:17:29;;;;;;;21.17;11.95;;;;;;;;;;5096122;28;20058;-47
2022/09/25 00:19:54;;;;;;;24.65;12.45;;;;;;;;;;5095958;28;20047;-46
2022/09/25 00:22:31;;;;;;;19.67;12.07;;;;;;;;;;5095906;28;20054;-48
2022/09/25 00:25:01;;;;;;;23.52;13.52;;;;;;;;;;5095224;28;20110;-47
2022/09/25 00:27:29;;;;;;;24.15;12.30;;;;;;;;;;5094239;28;20097;-47
2022/09/25 00:30:07;;;;;;;20.33;12.10;;;;;;;;;;5095983;28;20044;-47
2022/09/25 00:32:37;;;;;;;22.92;13.30;;;;;;;;;;5091536;28;20032;-48
2022/09/25 00:35:04;;;;;;;21.20;12.02;;;;;;;;;;5093123;28;20076;-50
2022/09/25 00:37:33;;;;;;;21.02;11.77;;;;;;;;;;5094982;28;20047;-46
2022/09/25 00:40:03;;;;;;;26.17;13.98;;;;;;;;;;5095956;28;20044;-46
2022/09/25 00:42:32;;;;;;;24.58;13.45;;;;;;;;;;5093611;28;20127;-47
2022/09/25 00:45:04;;;;;;;24.35;14.38;;;;;;;;;;5080303;28;20044;-48
2022/09/25 00:47:35;;;;;;;26.38;14.88;;;;;;;;;;5086685;28;20591;-49
2022/09/25 00:50:07;;;;;;;22.63;13.13;;;;;;;;;;5093427;28;20048;-50
2022/09/25 00:52:37;;;;;;;23.42;13.18;;;;;;;;;;5085663;28;20044;-46
2022/09/25 00:55:07;;;;;;;23.08;13.07;;;;;;;;;;5083832;28;20054;-48
2022/09/25 00:57:38;;;;;;;24.67;13.55;;;;;;;;;;5095780;28;20048;-47
2022/09/25 01:00:21;;;;;;;22.73;12.88;;;;;;;;;;5088651;28;20056;-49
2022/09/25 01:02:51;;;;;;;24.67;13.68;;;;;;;;;;5090591;28;20044;-48
2022/09/25 01:05:21;;;;;;;25.42;14.48;;;;;;;;;;5095533;28;20135;-48
2022/09/25 01:07:57;;;;;;;26.05;13.40;;;;;;;;;;5094849;28;20055;-50
2022/09/25 01:10:25;;;;;;;23.67;13.23;;;;;;;;;;5095067;28;20043;-47
2022/09/25 01:12:54;;;;;;;24.13;13.43;;;;;;;;;;5094341;28;20056;-46
2022/09/25 01:15:30;;;;;;;25.55;14.52;;;;;;;;;;5094948;28;20068;-46
2022/09/25 01:17:57;;;;;;;;;;;;;;;;;;5082701;28;20071;-48
2022/09/25 01:20:32;;;;;;;20.88;13.35;;;;;;;;;;5080648;28;19977;-48
2022/09/25 01:23:09;;;;;;;20.45;12.18;;;;;;;;;;5094274;28;20754;-46
2022/09/25 01:25:59;;;;;;;18.48;11.35;;;;;;;;;;5081390;28;20358;-47
2022/09/25 01:28:47;;;;;;;22.48;14.15;;;;;;;;;;5094512;28;20082;-46
2022/09/25 01:31:19;;;;;;;23.35;12.45;;;;;;;;;;5095036;28;20103;-48
2022/09/25 01:33:48;;;;;;;21.20;12.35;;;;;;;;;;5094588;28;20040;-49
2022/09/25 01:36:20;;;;;;;20.42;11.85;;;;;;;;;;5094217;28;20536;-50
2022/09/25 01:38:53;;;;;;;22.83;12.80;;;;;;;;;;5092976;28;20044;-48
2022/09/25 01:41:22;;;;;;;25.40;12.43;;;;;;;;;;5094315;28;20056;-49
2022/09/25 01:43:59;;;;;;;21.00;11.77;;;;;;;;;;5094143;28;20055;-49
2022/09/25 01:46:32;;;;;;;24.92;12.90;;;;;;;;;;5094439;28;20133;-47
2022/09/25 01:49:03;;;;;;;22.00;12.15;;;;;;;;;;5094683;28;20102;-48
2022/09/25 01:51:33;;;;;;;21.88;12.55;;;;;;;;;;5090229;28;20048;-48
2022/09/25 01:54:04;;;;;;;18.45;11.80;;;;;;;;;;5092536;28;20449;-48
2022/09/25 01:56:42;;;;;;;20.85;12.98;;;;;;;;;;5082810;28;20052;-47
2022/09/25 01:59:11;;;;;;;23.52;13.90;;;;;;;;;;5093476;28;20380;-48
2022/09/25 02:01:40;;;;;;;23.08;12.82;;;;;;;;;;5094025;28;20512;-50
2022/09/25 02:04:10;;;;;;;21.13;12.25;;;;;;;;;;5093845;28;20056;-47
2022/09/25 02:06:38;;;;;;;22.48;12.85;;;;;;;;;;5094059;28;20040;-47
2022/09/25 02:09:07;;;;;;;22.00;13.32;;;;;;;;;;5091756;28;20067;-51
2022/09/25 02:11:38;;;;;;;25.63;13.70;;;;;;;;;;5093643;28;20052;-48
2022/09/25 02:14:08;;;;;;;21.48;13.15;;;;;;;;;;5093704;28;20633;-47
2022/09/25 02:16:45;;;;;;;24.40;13.57;;;;;;;;;;5084073;28;20418;-48
2022/09/25 02:22:07;;;;;;;19.60;11.98;;;;;;;;;;5079609;28;20062;-51
2022/09/25 02:24:43;;;;;;;20.30;11.23;;;;;;;;;;5093200;28;20048;-48
2022/09/25 02:27:13;;;;;;;19.55;12.25;;;;;;;;;;5080534;28;20059;-48
2022/09/25 02:29:44;;;;;;;21.55;12.65;;;;;;;;;;5090650;28;20044;-47
2022/09/25 02:32:13;;;;;;;19.50;11.85;;;;;;;;;;5082900;28;20372;-48
2022/09/25 02:34:52;;;;;;;22.25;12.63;;;;;;;;;;5081722;28;20058;-46
2022/09/25 02:37:22;;;;;;;19.45;11.93;;;;;;;;;;5089833;28;20040;-47
2022/09/25 02:39:52;;;;;;;20.02;12.25;;;;;;;;;;5092671;28;20086;-46
2022/09/25 02:42:25;;;;;;;24.50;12.77;;;;;;;;;;5093322;28;20048;-48
2022/09/25 02:45:12;;;;;;;19.77;12.10;;;;;;;;;;5092186;28;20059;-48
2022/09/25 02:47:44;;;;;;;20.52;11.80;;;;;;;;;;5090757;28;20377;-48
2022/09/25 02:50:21;;;;;;;16.98;11.02;;;;;;;;;;5093164;28;20052;-48
2022/09/25 02:52:52;;;;;;;20.98;10.90;;;;;;;;;;5079780;28;20129;-47
2022/09/25 02:55:26;;;;;;;21.15;12.20;;;;;;;;;;5092445;28;20744;-46
2022/09/25 02:57:57;;;;;;;21.38;11.95;;;;;;;;;;5093078;28;20058;-47
2022/09/25 03:00:27;;;;;;;20.17;12.38;;;;;;;;;;5093590;28;20052;-46
2022/09/25 03:02:58;;;;;;;22.30;12.57;;;;;;;;;;5092765;28;20117;-50
2022/09/25 03:05:39;;;;;;;19.15;10.88;;;;;;;;;;5093170;28;20055;-47
2022/09/25 03:11:04;;;;;;;;;;;;;;;;;;5092913;28;20169;-46
2022/09/25 03:13:34;;;;;;;16.38;10.05;;;;;;;;;;5093077;28;19946;-47
2022/09/25 03:16:14;;;;;;;16.40;10.75;;;;;;;;;;5080226;28;20044;-50
2022/09/25 03:18:44;;;;;;;18.35;10.55;;;;;;;;;;5092410;28;20056;-48
2022/09/25 03:21:32;;;;;;;17.35;10.95;;;;;;;;;;5092564;28;20453;-46
2022/09/25 03:24:00;;;;;;;18.73;10.82;;;;;;;;;;5092619;28;20044;-47
2022/09/25 03:26:30;;;;;;;21.13;12.23;;;;;;;;;;5092493;28;20059;-47
2022/09/25 03:29:00;;;;;;;17.55;11.43;;;;;;;;;;5092182;28;20457;-46
2022/09/25 03:31:27;;;;;;;17.60;11.40;;;;;;;;;;5091448;28;20454;-48
2022/09/25 03:33:56;;;;;;;18.23;10.85;;;;;;;;;;5084773;28;20048;-47
2022/09/25 03:36:37;;;;;;;20.75;11.38;;;;;;;;;;5089994;28;20048;-49
2022/09/25 03:39:06;;;;;;;21.98;11.88;;;;;;;;;;5088643;28;20058;-47
2022/09/25 03:41:42;;;;;;;19.00;11.73;;;;;;;;;;5092354;28;20044;-49
2022/09/25 03:44:12;;;;;;;18.13;11.05;;;;;;;;;;5092485;28;20070;-49
2022/09/25 03:46:40;;;;;;;18.42;11.07;;;;;;;;;;5083073;28;20083;-48
2022/09/25 03:49:11;;;;;;;20.95;11.13;;;;;;;;;;5092248;28;20048;-47
2022/09/25 03:51:47;;;;;;;18.77;11.07;;;;;;;;;;5083127;28;20052;-49
2022/09/25 03:54:14;;;;;;;17.23;10.63;;;;;;;;;;5089676;28;20113;-47
2022/09/25 03:56:41;;;;;;;20.83;10.70;;;;;;;;;;5092615;28;20054;-51
2022/09/25 03:59:12;;;;;;;19.55;10.65;;;;;;;;;;5092183;28;20052;-47
2022/09/25 04:01:42;;;;;;;18.60;11.30;;;;;;;;;;5091001;28;20671;-47
2022/09/25 04:04:14;;;;;;;21.17;11.00;;;;;;;;;;5091768;28;20048;-47
2022/09/25 04:06:55;;;;;;;19.10;11.05;;;;;;;;;;5092017;28;20055;-46
2022/09/25 04:09:24;;;;;;;19.48;10.65;;;;;;;;;;5088421;28;20142;-47
2022/09/25 04:11:54;;;;;;;16.65;10.60;;;;;;;;;;5092158;28;20048;-49
2022/09/25 04:14:23;;;;;;;21.83;11.32;;;;;;;;;;5088371;28;20044;-47
2022/09/25 04:16:51;;;;;;;18.10;10.88;;;;;;;;;;5090558;28;20048;-47
2022/09/25 04:19:21;;;;;;;17.63;11.07;;;;;;;;;;5092211;28;20055;-46
2022/09/25 04:21:55;;;;;;;18.75;10.90;;;;;;;;;;5084347;28;20080;-47
2022/09/25 04:27:08;;;;;;;16.63;10.23;;;;;;;;;;5087672;28;20182;-47
2022/09/25 04:29:38;;;;;;;19.95;10.20;;;;;;;;;;5089605;28;20079;-46
2022/09/25 04:37:48;;;;;;;13.57;9.02;;;;;;;;;;5090071;28;20047;-47
2022/09/25 04:40:16;;;;;;;16.38;9.90;;;;;;;;;;5091143;28;20144;-47
2022/09/25 04:42:44;;;;;;;19.20;10.43;;;;;;;;;;5085494;28;20044;-49
2022/09/25 04:45:14;;;;;;;18.30;10.63;;;;;;;;;;5090169;28;20059;-49
2022/09/25 04:47:45;;;;;;;19.10;10.80;;;;;;;;;;5090953;28;20101;-47
2022/09/25 04:50:15;;;;;;;16.67;10.35;;;;;;;;;;5094876;28;20051;-48
2022/09/25 04:52:50;;;;;;;16.60;9.52;;;;;;;;;;5081971;28;20570;-48
2022/09/25 04:55:18;;;;;;;17.73;10.32;;;;;;;;;;5095502;28;20048;-47
2022/09/25 04:57:52;;;;;;;14.52;9.65;;;;;;;;;;5095010;28;20051;-46
2022/09/25 05:00:23;;;;;;;14.07;8.63;;;;;;;;;;5096083;28;20079;-46
2022/09/25 05:02:50;;;;;;;18.65;9.88;;;;;;;;;;5095428;28;20074;-50
2022/09/25 05:05:18;;;;;;;14.75;8.70;;;;;;;;;;5096118;28;20052;-47
2022/09/25 05:07:57;;;;;;;14.48;9.55;;;;;;;;;;5095288;28;20063;-47
2022/09/25 05:10:38;;;;;;;15.20;8.68;;;;;;;;;;5094865;28;20052;-47
2022/09/25 05:13:08;;;;;;;11.70;8.45;;;;;;;;;;5095127;28;20047;-47
2022/09/25 05:15:38;;;;;;;16.90;7.95;;;;;;;;;;5090300;28;20059;-47
2022/09/25 05:18:15;;;;;;;12.88;7.82;;;;;;;;;;5093511;28;20058;-47
2022/09/25 05:20:42;;;;;;;15.57;8.50;;;;;;;;;;5094738;28;20105;-48
2022/09/25 05:23:26;;;;;;;16.52;9.57;;;;;;;;;;5094679;28;20084;-47
2022/09/25 05:25:57;;;;;;;14.90;9.02;;;;;;;;;;5094998;28;20044;-46
2022/09/25 05:28:24;;;;;;;14.15;8.45;;;;;;;;;;5095382;28;20079;-47
2022/09/25 05:30:54;;;;;;;14.77;7.90;;;;;;;;;;5094894;28;20051;-47
2022/09/25 05:33:24;;;;;;;14.30;8.25;;;;;;;;;;5094929;28;20044;-48
2022/09/25 05:35:52;;;;;;;12.52;8.32;;;;;;;;;;5094769;28;20055;-47
2022/09/25 05:38:28;;;;;;;13.30;7.97;;;;;;;;;;5084478;28;20044;-48
2022/09/25 05:40:55;;;;;;;13.68;8.35;;;;;;;;;;5088209;28;20484;-48
2022/09/25 05:43:25;;;;;;;13.10;8.10;;;;;;;;;;5094617;28;20449;-50
2022/09/25 05:45:58;;;;;;;13.30;8.55;;;;;;;;;;5094194;28;20047;-50
2022/09/25 05:48:28;;;;;;;12.93;8.13;;;;;;;;;;5080820;28;20047;-47
2022/09/25 05:50:55;;;;;;;13.68;7.93;;;;;;;;;;5091179;28;20044;-47
2022/09/25 05:53:37;;;;;;;14.93;8.93;;;;;;;;;;5092404;28;20460;-47
2022/09/25 05:56:05;;;;;;;15.57;8.70;;;;;;;;;;5094697;28;20097;-47
2022/09/25 05:58:34;;;;;;;15.90;9.18;;;;;;;;;;5094318;28;20060;-47
2022/09/25 06:01:03;;;;;;;12.60;8.13;;;;;;;;;;5094166;28;20052;-51
2022/09/25 06:03:34;;;;;;;12.07;8.23;;;;;;;;;;5094568;28;20338;-49
2022/09/25 06:06:03;;;;;;;13.27;8.23;;;;;;;;;;5094281;28;20048;-47
2022/09/25 06:08:34;;;;;;;13.07;7.85;;;;;;;;;;5093972;28;20047;-47
2022/09/25 06:11:03;;;;;;;14.52;8.30;;;;;;;;;;5093373;28;20131;-47
2022/09/25 06:13:35;;;;;;;13.40;8.15;;;;;;;;;;5094391;28;20040;-47
2022/09/25 06:16:06;;;;;;;12.98;8.60;;;;;;;;;;5093289;28;20374;-50
2022/09/25 06:18:35;;;;;;;14.20;8.77;;;;;;;;;;5094594;28;20087;-48
2022/09/25 06:21:04;;;;;;;11.52;7.05;;;;;;;;;;5093355;28;20536;-47
2022/09/25 06:23:34;;;;;;;11.13;7.10;;;;;;;;;;5086932;28;20058;-47
2022/09/25 06:26:05;;;;;;;12.00;7.32;;;;;;;;;;5093208;28;20086;-47
2022/09/25 06:28:33;;;;;;;10.63;6.68;;;;;;;;;;5093345;28;20051;-50
2022/09/25 06:31:03;;;;;;;12.75;8.13;;;;;;;;;;5093581;28;20054;-48
2022/09/25 06:33:31;;;;;;;9.25;6.32;;;;;;;;;;5088928;28;20040;-47
2022/09/25 06:36:01;;;;;;;11.73;6.45;;;;;;;;;;5082564;28;20055;-46
2022/09/25 06:38:32;;;;;;;13.88;7.43;;;;;;;;;;5089425;28;20058;-48
2022/09/25 06:41:07;;;;;;;8.60;6.10;;;;;;;;;;5091832;28;20044;-46
2022/09/25 06:43:34;;;;;;;8.75;5.88;;;;;;;;;;5081745;28;20116;-48
2022/09/25 06:46:04;;;;;;;11.35;6.70;;;;;;;;;;5093328;28;20054;-47
2022/09/25 06:48:33;;;;;;;11.45;6.75;;;;;;;;;;5093407;28;20048;-47
2022/09/25 06:51:13;;;;;;;11.52;6.05;;;;;;;;;;5083527;28;20460;-48
2022/09/25 06:53:41;;;;;;;11.55;7.43;;;;;;;;;;5092825;28;20044;-47
2022/09/25 06:56:10;;;;;;;7.22;4.82;;;;;;;;;;5089530;28;20075;-46
2022/09/25 06:58:40;;;;;;;8.77;5.40;;;;;;;;;;5082498;28;20062;-47
2022/09/25 07:01:12;;;;;;;14.27;8.63;;;;;;;;;;5093018;28;20062;-47
2022/09/25 07:03:48;;;;;;;16.92;9.80;;;;;;;;;;5092680;28;20048;-48
2022/09/25 07:06:25;;;;;;;20.00;10.93;;;;;;;;;;5093153;28;20048;-47
2022/09/25 07:08:55;;;;;;;21.75;11.02;;;;;;;;;;5092473;28;20044;-47
2022/09/25 07:11:46;;;;;;;18.33;10.63;;;;;;;;;;5091671;28;20063;-50
2022/09/25 07:14:15;;;;;;;19.95;10.45;;;;;;;;;;5084237;28;20044;-48
2022/09/25 07:16:43;;;;;;;15.27;9.20;;;;;;;;;;5090116;28;20351;-47
2022/09/25 07:19:09;;;;;;;12.73;7.78;;;;;;;;;;5092690;28;20452;-47
2022/09/25 07:21:46;;;;;;;11.80;6.82;;;;;;;;;;5092547;28;20060;-49
2022/09/25 07:24:15;;;;;;;13.23;7.38;;;;;;;;;;5092992;28;20059;-48
2022/09/25 07:26:55;;;;;;;13.95;8.55;;;;;;;;;;5091933;28;20056;-47
2022/09/25 07:29:26;;;;;;;12.63;8.13;;;;;;;;;;5080772;28;20057;-47
2022/09/25 07:31:52;;;;;;;14.52;7.63;;;;;;;;;;5091971;28;20048;-48
2022/09/25 07:34:22;;;;;;;12.35;6.75;;;;;;;;;;5088398;28;20167;-51
2022/09/25 07:36:53;;;;;;;11.18;6.93;;;;;;;;;;5092850;28;20090;-47
2022/09/25 07:39:24;;;;;;;10.60;7.38;;;;;;;;;;5091003;28;20044;-48
2022/09/25 07:42:07;;;;;;;10.90;6.90;;;;;;;;;;5093106;28;20039;-46
2022/09/25 07:44:38;;;;;;;10.52;6.78;;;;;;;;;;5090110;28;20396;-46
2022/09/25 07:47:08;;;;;;;11.55;6.68;;;;;;;;;;5088185;28;20047;-47
2022/09/25 07:49:35;;;;;;;12.50;7.60;;;;;;;;;;5092008;28;20052;-46
2022/09/25 07:52:05;;;;;;;11.80;7.32;;;;;;;;;;5087464;28;20377;-46
2022/09/25 07:54:33;;;;;;;11.63;6.85;;;;;;;;;;5089502;28;20048;-46
2022/09/25 07:57:01;;;;;;;10.80;6.90;;;;;;;;;;5092302;28;20428;-47
2022/09/25 07:59:28;;;;;;;12.20;7.82;;;;;;;;;;5092396;28;20664;-47
2022/09/25 08:02:12;;;;;;;11.77;6.82;;;;;;;;;;5091532;28;20055;-47
2022/09/25 08:04:42;;;;;;;10.20;6.60;;;;;;;;;;5092196;28;20044;-48
2022/09/25 08:07:09;;;;;;;11.50;6.95;;;;;;;;;;5080955;28;20113;-47
2022/09/25 08:09:39;;;;;;;10.07;6.60;;;;;;;;;;5091582;28;20044;-47
2022/09/25 08:12:10;;;;;;;12.85;6.90;;;;;;;;;;5072540;28;20098;-47
2022/09/25 08:14:37;;;;;;;12.88;6.70;;;;;;;;;;5091341;28;20036;-50
2022/09/25 08:17:19;;;;;;;10.93;7.15;;;;;;;;;;5086291;28;20048;-50
2022/09/25 08:19:49;;;;;;;7.70;5.93;;;;;;;;;;5092075;28;20090;-51
2022/09/25 08:22:19;;;;;;;10.30;7.40;;;;;;;;;;5092900;28;20051;-47
2022/09/25 08:24:49;;;;;;;11.95;7.15;;;;;;;;;;5096057;28;20079;-48
2022/09/25 08:27:19;;;;;;;10.85;7.43;;;;;;;;;;5095684;28;20520;-50
2022/09/25 08:29:50;;;;;;;11.48;6.78;;;;;;;;;;5095892;28;20047;-47
2022/09/25 08:32:22;;;;;;;11.88;7.05;;;;;;;;;;5095972;28;20079;-47
2022/09/25 08:34:53;;;;;;;9.73;6.72;;;;;;;;;;5095582;28;20055;-49
2022/09/25 08:37:22;;;;;;;10.23;5.57;;;;;;;;;;5095257;28;20395;-50
2022/09/25 08:39:50;;;;;;;10.40;6.88;;;;;;;;;;5095400;28;20645;-48
2022/09/25 08:42:19;;;;;;;10.60;6.93;;;;;;;;;;5094860;28;20369;-47
2022/09/25 08:44:47;;;;;;;10.13;6.80;;;;;;;;;;5092471;28;20123;-47
2022/09/25 08:50:05;;;;;;;14.35;8.98;;;;;;;;;;5051086;28;20216;-47
2022/09/25 08:52:36;;;;;;;11.38;7.88;;;;;;;;;;5083714;28;20052;-46
2022/09/25 08:55:09;;;;;;;11.25;7.43;;;;;;;;;;5093257;28;20043;-46
2022/09/25 08:57:45;;;;;;;11.60;8.10;;;;;;;;;;5089370;28;20392;-50
2022/09/25 09:00:20;;;;;;;14.57;8.90;;;;;;;;;;5093381;28;20063;-49
2022/09/25 09:02:51;;;;;;;13.15;8.63;;;;;;;;;;5093046;28;20062;-47
2022/09/25 09:05:30;;;;;;;12.43;8.05;;;;;;;;;;5090917;28;20044;-50
2022/09/25 09:08:06;;;;;;;13.70;8.93;;;;;;;;;;5092346;28;20468;-46
2022/09/25 09:10:36;;;;;;;12.02;8.45;;;;;;;;;;5094588;28;20571;-46
2022/09/25 09:13:09;;;;;;;14.43;8.15;;;;;;;;;;5094995;28;20058;-46
2022/09/25 09:15:39;;;;;;;11.85;8.35;;;;;;;;;;5094039;28;20131;-45
2022/09/25 09:18:17;;;;;;;11.30;8.68;;;;;;;;;;5094429;28;20051;-48
2022/09/25 09:20:52;;;;;;;13.05;8.75;;;;;;;;;;5094919;28;20051;-47
2022/09/25 09:23:19;;;;;;;13.00;8.40;;;;;;;;;;5093925;28;20180;-47
2022/09/25 09:25:52;;;;;;;12.73;8.77;;;;;;;;;;5094888;28;20051;-51
2022/09/25 09:28:54;;;;;;;15.65;8.57;;;;;;;;;;5094077;28;20048;-51
2022/09/25 09:31:29;;;;;;;14.43;9.32;;;;;;;;;;5090324;28;20192;-47
2022/09/25 09:34:01;;;;;;;14.18;9.50;;;;;;;;;;5093567;28;20433;-48
2022/09/25 09:36:36;;;;;;;14.15;9.50;;;;;;;;;;5094497;28;20059;-48
2022/09/25 09:39:08;;;;;;;;;;;;;;;;;;5095423;28;20089;-47
2022/09/25 09:41:49;;;;;;;11.02;6.80;;;;;;;;;;5093669;28;19952;-48
2022/09/25 09:44:25;;;;;;;10.40;7.35;;;;;;;;;;5084634;28;20052;-48
2022/09/25 09:46:59;;;;;;;12.93;7.65;;;;;;;;;;5086369;28;20465;-48
2022/09/25 09:49:32;;;;;;;13.65;10.60;;;;;;;;;;5089229;28;20113;-48
2022/09/25 09:52:11;;;;;;;18.10;11.55;;;;;;;;;;5093657;28;20044;-48
2022/09/25 09:54:42;;;;;;;12.23;9.25;;;;;;;;;;5087193;28;20355;-48
2022/09/25 09:57:15;;;;;;;13.95;8.93;;;;;;;;;;5094228;28;20579;-46
2022/09/25 09:59:47;;;;;;;14.18;10.30;;;;;;;;;;5083033;28;20083;-47
2022/09/25 10:02:23;;;;;;;13.25;8.75;;;;;;;;;;5087533;28;20056;-48
2022/09/25 10:04:52;;;;;;;14.63;10.48;;;;;;;;;;5092986;28;20094;-48
2022/09/25 10:07:27;;;;;;;15.50;9.95;;;;;;;;;;5088371;28;20052;-48
2022/09/25 10:09:57;;;;;;;13.17;9.07;;;;;;;;;;5086969;28;20062;-47
2022/09/25 10:12:27;;;;;;;12.90;9.40;;;;;;;;;;5087321;28;20147;-51
2022/09/25 10:14:57;;;;;;;16.17;9.73;;;;;;;;;;5087381;28;21332;-49
2022/09/25 10:17:36;;;;;;;14.23;8.55;;;;;;;;;;5089176;28;20085;-47
2022/09/25 10:20:04;;;;;;;15.38;9.23;;;;;;;;;;5089930;28;20387;-48
2022/09/25 10:22:47;;;;;;;14.65;10.80;;;;;;;;;;5084135;28;20044;-50
2022/09/25 10:25:19;;;;;;;16.55;9.75;;;;;;;;;;5091528;28;20048;-47
2022/09/25 10:27:47;;;;;;;14.75;11.00;;;;;;;;;;5085199;28;20055;-47
2022/09/25 10:30:19;;;;;;;16.10;9.93;;;;;;;;;;5092956;28;20063;-47
2022/09/25 10:32:58;;;;;;;14.00;10.25;;;;;;;;;;5091262;28;20072;-48
2022/09/25 10:35:27;;;;;;;16.55;11.23;;;;;;;;;;5092198;28;20048;-49
2022/09/25 10:37:58;;;;;;;16.60;10.77;;;;;;;;;;5091335;28;20131;-48
2022/09/25 10:40:27;;;;;;;14.32;10.77;;;;;;;;;;5093482;28;20048;-47
2022/09/25 10:43:07;;;;;;;16.80;11.38;;;;;;;;;;5080594;28;20055;-48
2022/09/25 10:45:39;;;;;;;18.35;11.88;;;;;;;;;;5090048;28;20044;-47
2022/09/25 10:51:08;;;;;;;18.40;12.63;;;;;;;;;;5088251;28;20443;-47
2022/09/25 10:53:45;;;;;;;15.77;11.50;;;;;;;;;;5085191;28;20524;-50
2022/09/25 10:56:14;;;;;;;16.55;10.88;;;;;;;;;;5092714;28;20040;-51
2022/09/25 10:58:43;;;;;;;12.25;9.85;;;;;;;;;;5089102;28;20058;-51
2022/09/25 11:01:20;;;;;;;14.50;8.57;;;;;;;;;;5093042;28;20044;-49
2022/09/25 11:04:02;;;;;;;14.35;9.45;;;;;;;;;;5092961;28;20109;-47
2022/09/25 11:06:33;;;;;;;15.13;9.65;;;;;;;;;;5077096;28;20048;-50
2022/09/25 11:09:07;;;;;;;18.58;12.20;;;;;;;;;;5092791;28;20043;-47
2022/09/25 11:11:36;;;;;;;16.33;10.73;;;;;;;;;;5089923;28;20040;-49
2022/09/25 11:14:06;;;;;;;16.50;9.32;;;;;;;;;;5092308;28;20056;-48
2022/09/25 11:16:49;;;;;;;16.35;10.98;;;;;;;;;;5092869;28;20055;-47
2022/09/25 11:19:21;;;;;;;17.90;10.05;;;;;;;;;;5093041;28;20173;-49
2022/09/25 11:21:58;;;;;;;16.80;11.60;;;;;;;;;;5090742;28;20044;-49
2022/09/25 11:24:39;;;;;;;15.07;9.25;;;;;;;;;;5082919;28;20059;-48
2022/09/25 11:27:14;;;;;;;13.38;9.52;;;;;;;;;;5091505;28;20062;-48
2022/09/25 11:29:47;;;;;;;14.30;9.90;;;;;;;;;;5092457;28;20044;-48
2022/09/25 11:32:22;;;;;;;17.50;11.95;;;;;;;;;;5081048;28;20044;-48
2022/09/25 11:35:12;;;;;;;14.23;9.20;;;;;;;;;;5092570;28;20044;-49
2022/09/25 11:37:43;;;;;;;15.95;11.15;;;;;;;;;;5057487;28;20044;-48
2022/09/25 11:43:06;;;;;;;14.32;9.25;;;;;;;;;;5092574;28;20667;-51
2022/09/25 11:45:36;;;;;;;17.17;12.98;;;;;;;;;;5092319;28;20063;-49
2022/09/25 11:48:06;;;;;;;20.23;12.95;;;;;;;;;;5092496;28;20055;-48
2022/09/25 11:50:39;;;;;;;16.17;11.55;;;;;;;;;;5091900;28;20044;-48
2022/09/25 11:53:12;;;;;;;12.75;9.85;;;;;;;;;;5082863;28;20055;-47
2022/09/25 11:56:03;;;;;;;15.70;10.77;;;;;;;;;;5091927;28;20040;-47
2022/09/25 11:59:03;;;;;;;14.27;9.65;;;;;;;;;;5088498;28;20142;-48
2022/09/25 12:01:39;;;;;;;16.00;9.45;;;;;;;;;;5095613;28;20060;-47
2022/09/25 12:04:26;;;;;;;11.63;8.75;;;;;;;;;;5096157;28;20058;-47
2022/09/25 12:07:04;;;;;;;12.43;7.57;;;;;;;;;;5085980;28;20052;-47
2022/09/25 12:09:45;;;;;;;12.55;7.57;;;;;;;;;;5096254;28;20088;-48
2022/09/25 12:12:26;;;;;;;12.88;8.00;;;;;;;;;;5096736;28;20109;-47
2022/09/25 12:14:57;;;;;;;10.75;7.60;;;;;;;;;;5096037;28;20048;-50
2022/09/25 12:17:28;;;;;;;10.43;7.10;;;;;;;;;;5089077;28;20476;-47
2022/09/25 12:19:59;;;;;;;8.90;5.78;;;;;;;;;;5096042;28;20052;-48
2022/09/25 12:22:35;;;;;;;7.28;5.00;;;;;;;;;;5095829;28;20060;-48
2022/09/25 12:25:06;;;;;;;8.80;5.43;;;;;;;;;;5095743;28;20072;-50
2022/09/25 12:27:54;;;;;;;6.63;4.68;;;;;;;;;;5095906;28;20048;-48
2022/09/25 12:30:24;;;;;;;6.93;4.75;;;;;;;;;;5093600;28;20597;-48
2022/09/25 12:33:01;;;;;;;8.70;6.65;;;;;;;;;;5093791;28;20514;-47
2022/09/25 12:35:38;;;;;;;13.93;8.90;;;;;;;;;;5095971;28;20040;-51
2022/09/25 12:38:12;;;;;;;7.43;6.05;;;;;;;;;;5091616;28;20448;-48
2022/09/25 12:40:40;;;;;;;;;;;;;;;;;;5096617;28;20101;-49
2022/09/25 12:43:13;;;;;;;8.38;5.35;;;;;;;;;;5094985;28;20048;-48
2022/09/25 12:45:50;;;;;;;10.98;7.45;;;;;;;;;;5088735;28;20048;-48
2022/09/25 12:48:20;;;;;;;10.18;7.38;;;;;;;;;;5094764;28;20051;-47
2022/09/25 12:50:53;;;;;;;9.52;5.95;;;;;;;;;;5092778;28;20455;-48
2022/09/25 12:53:33;;;;;;;9.05;4.78;;;;;;;;;;5085534;28;20512;-47
2022/09/25 12:56:04;;;;;;;11.38;7.72;;;;;;;;;;5089610;28;20051;-50
2022/09/25 12:58:49;;;;;;;8.25;5.95;;;;;;;;;;5095197;28;20048;-47
2022/09/25 13:01:23;;;;;;;9.52;6.72;;;;;;;;;;5088884;28;20047;-48
2022/09/25 13:03:57;;;;;;;9.87;7.23;;;;;;;;;;5087795;28;20076;-48
2022/09/25 13:06:33;;;;;;;10.68;5.90;;;;;;;;;;5095532;28;20047;-51
2022/09/25 13:09:10;;;;;;;7.63;4.40;;;;;;;;;;5086916;28;20056;-48
2022/09/25 13:11:39;;;;;;;8.50;5.25;;;;;;;;;;5094126;28;20405;-47
2022/09/25 13:14:16;;;;;;;9.73;6.55;;;;;;;;;;5095626;28;20044;-47
2022/09/25 13:16:47;;;;;;;8.70;5.80;;;;;;;;;;5095173;28;20132;-50
2022/09/25 13:19:25;;;;;;;10.68;6.18;;;;;;;;;;5091122;28;20520;-50
2022/09/25 13:22:02;;;;;;;7.50;5.95;;;;;;;;;;5082356;28;20071;-49
2022/09/25 13:24:32;;;;;;;7.75;5.95;;;;;;;;;;5074399;28;20052;-48
2022/09/25 13:27:10;;;;;;;10.55;5.88;;;;;;;;;;5074474;28;20050;-51
2022/09/25 13:29:37;;;;;;;7.07;4.82;;;;;;;;;;5072288;28;20053;-50
2022/09/25 13:32:08;;;;;;;11.23;6.85;;;;;;;;;;5074784;28;20055;-48
2022/09/25 13:34:45;;;;;;;6.85;4.43;;;;;;;;;;5075350;28;20049;-48
2022/09/25 13:37:15;;;;;;;7.53;5.35;;;;;;;;;;5071693;28;20052;-48
2022/09/25 13:42:38;;;;;;;7.97;5.10;;;;;;;;;;5068504;28;20070;-48
2022/09/25 13:45:35;;;;;;;8.48;5.50;;;;;;;;;;5070991;28;20517;-47
2022/09/25 13:48:11;;;;;;;6.65;5.00;;;;;;;;;;5074884;28;20083;-49
2022/09/25 13:50:42;;;;;;;9.80;5.22;;;;;;;;;;5074832;28;20059;-51
2022/09/25 13:53:30;;;;;;;10.55;6.43;;;;;;;;;;5075027;28;20521;-47
2022/09/25 13:56:17;;;;;;;8.68;5.80;;;;;;;;;;5065303;28;20048;-48
2022/09/25 13:59:06;;;;;;;10.15;6.80;;;;;;;;;;5074634;28;20082;-48
2022/09/25 14:01:44;;;;;;;6.78;4.72;;;;;;;;;;5073246;28;20105;-48
2022/09/25 14:04:24;;;;;;;10.07;6.85;;;;;;;;;;5073726;28;20048;-46
2022/09/25 14:06:57;;;;;;;9.02;6.20;;;;;;;;;;5063191;28;20048;-46
2022/09/25 14:09:27;;;;;;;9.50;7.20;;;;;;;;;;5070281;28;20102;-50
2022/09/25 14:12:03;;;;;;;10.90;7.10;;;;;;;;;;5073501;28;20048;-46
2022/09/25 14:14:33;;;;;;;10.10;6.80;;;;;;;;;;5074972;28;20052;-48
2022/09/25 14:17:03;;;;;;;12.95;7.55;;;;;;;;;;5074208;28;20055;-47
2022/09/25 14:19:47;;;;;;;9.70;6.40;;;;;;;;;;5072920;28;20056;-47
2022/09/25 14:22:21;;;;;;;9.73;6.05;;;;;;;;;;5070540;28;20060;-48
2022/09/25 14:24:52;;;;;;;9.77;6.93;;;;;;;;;;5091714;28;20059;-48
2022/09/25 14:27:25;;;;;;;9.63;6.68;;;;;;;;;;5091096;28;20044;-46
2022/09/25 14:30:03;;;;;;;7.90;6.00;;;;;;;;;;5087545;28;20052;-46
2022/09/25 14:32:40;;;;;;;11.68;7.25;;;;;;;;;;5091092;28;20117;-46
2022/09/25 14:35:28;;;;;;;8.38;5.78;;;;;;;;;;5080535;28;20052;-47
2022/09/25 14:38:07;;;;;;;9.85;6.05;;;;;;;;;;5083777;28;20051;-50
2022/09/25 14:40:44;;;;;;;9.73;6.25;;;;;;;;;;5088212;28;20056;-49
2022/09/25 14:43:34;;;;;;;8.50;6.05;;;;;;;;;;5090364;28;20053;-50
2022/09/25 14:46:10;;;;;;;9.55;6.43;;;;;;;;;;5087866;28;20244;-49
2022/09/25 14:48:53;;;;;;;10.15;6.57;;;;;;;;;;5087627;28;20053;-46
2022/09/25 14:51:29;;;;;;;7.13;5.25;;;;;;;;;;5089461;28;20131;-46
2022/09/25 14:54:05;;;;;;;8.40;5.53;;;;;;;;;;5089077;28;20075;-48
2022/09/25 14:56:35;;;;;;;5.60;4.60;;;;;;;;;;5089645;28;20417;-47
2022/09/25 14:59:16;;;;;;;7.25;4.53;;;;;;;;;;5089947;28;20165;-47
2022/09/25 15:01:53;;;;;;;8.23;5.38;;;;;;;;;;5086671;28;20105;-47
2022/09/25 15:04:26;;;;;;;8.45;5.65;;;;;;;;;;5090267;28;20066;-47
2022/09/25 15:07:02;;;;;;;6.75;4.50;;;;;;;;;;5089595;28;20051;-47
2022/09/25 15:09:46;;;;;;;6.85;4.50;;;;;;;;;;5092288;28;20048;-47
2022/09/25 15:12:18;;;;;;;5.55;4.00;;;;;;;;;;5086929;28;20135;-46
2022/09/25 15:15:04;;;;;;;8.95;5.70;;;;;;;;;;5093173;28;20074;-47
2022/09/25 15:17:30;;;;;;;6.85;4.85;;;;;;;;;;5078386;28;20048;-46
2022/09/25 15:20:02;;;;;;;5.72;4.55;;;;;;;;;;5093558;28;20055;-46
2022/09/25 15:22:31;;;;;;;7.72;4.57;;;;;;;;;;5089442;28;20380;-47
2022/09/25 15:25:03;;;;;;;6.53;4.18;;;;;;;;;;5092481;28;20048;-46
2022/09/25 15:27:33;;;;;;;7.80;5.13;;;;;;;;;;5083318;28;20098;-46
2022/09/25 15:30:01;;;;;;;6.32;4.35;;;;;;;;;;5093790;28;20052;-47